createdAt,value
2023-02-04T00:01:43.335Z,2.70
2023-02-04T00:04:09.784Z,3.80
2023-02-04T00:06:36.085Z,2.35
2023-02-04T00:09:02.417Z,1.98
2023-02-04T00:11:28.686Z,4.63
2023-02-04T00:13:54.963Z,2.65
2023-02-04T00:16:21.393Z,1.95
2023-02-04T00:18:47.719Z,2.53
2023-02-04T00:21:14.219Z,2.72
2023-02-04T00:23:41.054Z,2.38
2023-02-04T00:26:07.674Z,2.70
2023-02-04T00:28:34.449Z,3.63
2023-02-04T00:31:00.833Z,2.50
2023-02-04T00:33:27.242Z,2.42
2023-02-04T00:35:53.594Z,1.98
2023-02-04T00:38:19.912Z,1.85
2023-02-04T00:40:46.205Z,2.53
2023-02-04T00:43:12.499Z,2.35
2023-02-04T00:45:38.812Z,2.38
2023-02-04T00:48:05.707Z,2.30
2023-02-04T00:50:32.317Z,2.55
2023-02-04T00:53:01.743Z,2.50
2023-02-04T00:55:28.069Z,3.55
2023-02-04T00:57:54.360Z,2.45
2023-02-04T01:00:20.788Z,2.58
2023-02-04T01:02:47.233Z,2.42
2023-02-04T01:05:13.690Z,2.40
2023-02-04T01:07:40.054Z,2.47
2023-02-04T01:10:06.889Z,2.45
2023-02-04T01:12:33.534Z,1.92
2023-02-04T01:15:00.100Z,2.20
2023-02-04T01:17:26.464Z,3.53
2023-02-04T01:19:53.604Z,2.33
2023-02-04T01:22:19.934Z,1.90
2023-02-04T01:24:46.229Z,2.10
2023-02-04T01:27:12.529Z,1.95
2023-02-04T01:29:38.834Z,2.33
2023-02-04T01:32:05.235Z,2.33
2023-02-04T01:34:31.643Z,2.63
2023-02-04T01:36:57.962Z,2.38
2023-02-04T01:39:24.317Z,1.88
2023-02-04T01:41:50.706Z,2.30
2023-02-04T01:44:17.058Z,2.15
2023-02-04T01:46:43.428Z,2.45
2023-02-04T01:49:11.062Z,2.30
2023-02-04T01:51:37.678Z,2.83
2023-02-04T01:54:04.204Z,2.20
2023-02-04T01:56:30.962Z,2.05
2023-02-04T01:58:58.390Z,2.00
2023-02-04T02:01:38.398Z,4.28
2023-02-04T02:04:05.600Z,3.53
2023-02-04T02:06:32.239Z,2.38
2023-02-04T02:08:59.943Z,1.95
2023-02-04T02:11:27.447Z,2.50
2023-02-04T02:13:54.221Z,2.10
2023-02-04T02:16:20.591Z,1.98
2023-02-04T02:18:47.261Z,2.75
2023-02-04T02:21:16.431Z,2.58
2023-02-04T02:23:54.787Z,2.67
2023-02-04T02:26:23.511Z,2.35
2023-02-04T02:28:50.855Z,1.70
2023-02-04T02:31:19.901Z,3.00
2023-02-04T02:33:47.526Z,2.90
2023-02-04T02:36:14.938Z,2.75
2023-02-04T02:38:41.548Z,2.05
2023-02-04T02:41:10.078Z,2.42
2023-02-04T02:43:38.016Z,2.25
2023-02-04T02:46:04.746Z,2.25
2023-02-04T02:48:31.134Z,1.60
2023-02-04T02:50:57.473Z,2.55
2023-02-04T02:53:23.951Z,1.75
2023-02-04T02:55:51.296Z,1.98
2023-02-04T02:58:28.207Z,2.10
2023-02-04T03:00:55.257Z,2.15
2023-02-04T03:03:25.199Z,2.00
2023-02-04T03:05:57.573Z,1.88
2023-02-04T03:08:23.963Z,2.30
2023-02-04T03:10:50.470Z,1.92
2023-02-04T03:13:17.939Z,2.40
2023-02-04T03:15:47.277Z,1.83
2023-02-04T03:18:17.558Z,2.88
2023-02-04T03:20:44.027Z,2.37
2023-02-04T03:23:11.014Z,2.13
2023-02-04T03:25:37.446Z,2.20
2023-02-04T03:28:03.991Z,2.60
2023-02-04T03:30:30.695Z,2.17
2023-02-04T03:32:57.828Z,2.08
2023-02-04T03:35:24.116Z,2.72
2023-02-04T03:37:50.650Z,2.20
2023-02-04T03:40:17.072Z,1.98
2023-02-04T03:42:43.359Z,2.00
2023-02-04T03:45:09.899Z,1.92
2023-02-04T03:47:36.643Z,1.92
2023-02-04T03:50:03.807Z,2.50
2023-02-04T03:52:30.109Z,2.17
2023-02-04T03:54:56.434Z,2.20
2023-02-04T03:57:22.717Z,2.50
2023-02-04T03:59:49.087Z,1.73
2023-02-04T04:02:15.412Z,2.05
2023-02-04T04:04:41.912Z,2.60
2023-02-04T04:07:08.220Z,2.13
2023-02-04T04:09:34.520Z,2.53
2023-02-04T04:12:00.873Z,3.22
2023-02-04T04:14:27.317Z,2.60
2023-02-04T04:16:53.602Z,3.08
2023-02-04T04:19:19.880Z,2.28
2023-02-04T04:21:46.194Z,2.83
2023-02-04T04:24:12.486Z,2.60
2023-02-04T04:26:38.797Z,2.53
2023-02-04T04:29:05.106Z,2.20
2023-02-04T04:31:31.545Z,2.85
2023-02-04T04:33:58.019Z,2.42
2023-02-04T04:36:24.302Z,2.67
2023-02-04T04:38:50.594Z,2.67
2023-02-04T04:41:16.893Z,2.70
2023-02-04T04:43:43.186Z,2.35
2023-02-04T04:46:09.460Z,2.60
2023-02-04T04:48:35.768Z,3.05
2023-02-04T04:51:02.060Z,1.80
2023-02-04T04:53:28.360Z,2.30
2023-02-04T04:55:54.765Z,2.95
2023-02-04T04:58:21.195Z,2.97
2023-02-04T05:00:48.201Z,2.60
2023-02-04T05:03:14.520Z,3.40
2023-02-04T05:05:41.348Z,2.47
2023-02-04T05:08:13.210Z,2.88
2023-02-04T05:10:40.418Z,2.72
2023-02-04T05:13:07.217Z,2.58
2023-02-04T05:15:34.120Z,2.75
2023-02-04T05:18:00.529Z,2.58
2023-02-04T05:20:26.910Z,2.55
2023-02-04T05:22:53.507Z,3.03
2023-02-04T05:25:19.827Z,2.72
2023-02-04T05:27:46.204Z,2.58
2023-02-04T05:30:13.065Z,2.00
2023-02-04T05:32:39.444Z,2.47
2023-02-04T05:35:06.501Z,3.03
2023-02-04T05:37:33.095Z,2.55
2023-02-04T05:39:59.388Z,2.78
2023-02-04T05:42:25.689Z,3.83
2023-02-04T05:44:52.039Z,3.47
2023-02-04T05:47:20.274Z,3.35
2023-02-04T05:49:46.702Z,2.90
2023-02-04T05:52:13.004Z,4.38
2023-02-04T05:54:39.322Z,2.67
2023-02-04T05:57:05.664Z,2.85
2023-02-04T05:59:31.980Z,3.00
2023-02-04T06:01:58.320Z,3.47
2023-02-04T06:04:24.688Z,3.17
2023-02-04T06:06:51.021Z,2.65
2023-02-04T06:09:17.332Z,3.20
2023-02-04T06:11:43.633Z,3.08
2023-02-04T06:14:10.833Z,2.65
2023-02-04T06:16:37.371Z,2.88
2023-02-04T06:19:03.835Z,3.20
2023-02-04T06:21:30.347Z,2.95
2023-02-04T06:23:56.652Z,2.90
2023-02-04T06:26:23.056Z,2.75
2023-02-04T06:28:49.370Z,2.70
2023-02-04T06:31:15.728Z,3.30
2023-02-04T06:33:42.164Z,2.47
2023-02-04T06:36:08.734Z,3.10
2023-02-04T06:38:35.096Z,3.67
2023-02-04T06:41:01.426Z,3.88
2023-02-04T06:43:27.846Z,2.90
2023-02-04T06:45:54.259Z,2.40
2023-02-04T06:48:21.199Z,2.90
2023-02-04T06:50:47.608Z,2.22
2023-02-04T06:53:13.928Z,2.63
2023-02-04T06:55:40.240Z,3.38
2023-02-04T06:58:06.624Z,3.50
2023-02-04T07:00:33.780Z,3.95
2023-02-04T07:03:00.396Z,4.38
2023-02-04T07:05:26.693Z,3.47
2023-02-04T07:07:53.115Z,4.15
2023-02-04T07:10:20.902Z,3.55
2023-02-04T07:12:47.514Z,4.00
2023-02-04T07:15:13.957Z,4.30
2023-02-04T07:17:40.256Z,4.78
2023-02-04T07:20:07.043Z,4.28
2023-02-04T07:22:33.359Z,4.20
2023-02-04T07:24:59.641Z,4.45
2023-02-04T07:27:26.002Z,3.80
2023-02-04T07:29:52.313Z,3.40
2023-02-04T07:32:18.617Z,3.70
2023-02-04T07:34:44.978Z,3.25
2023-02-04T07:37:11.450Z,4.68
2023-02-04T07:39:37.740Z,4.55
2023-02-04T07:42:04.041Z,3.15
2023-02-04T07:44:30.601Z,3.40
2023-02-04T07:46:57.506Z,3.95
2023-02-04T07:49:23.870Z,3.67
2023-02-04T07:51:50.154Z,3.80
2023-02-04T07:54:16.457Z,3.42
2023-02-04T07:56:42.796Z,5.05
2023-02-04T07:59:09.198Z,3.72
2023-02-04T08:01:35.532Z,3.25
2023-02-04T08:04:01.881Z,3.90
2023-02-04T08:06:28.219Z,3.33
2023-02-04T08:08:54.600Z,2.97
2023-02-04T08:11:20.908Z,3.50
2023-02-04T08:13:47.235Z,4.35
2023-02-04T08:16:13.557Z,6.22
2023-02-04T08:18:39.938Z,4.35
2023-02-04T08:21:06.404Z,4.53
2023-02-04T08:23:33.242Z,5.30
2023-02-04T08:25:59.811Z,4.88
2023-02-04T08:28:26.125Z,4.75
2023-02-04T08:30:52.463Z,4.32
2023-02-04T08:33:18.798Z,4.53
2023-02-04T08:35:45.102Z,3.88
2023-02-04T08:38:11.385Z,3.05
2023-02-04T08:40:37.869Z,3.45
2023-02-04T08:43:04.164Z,3.78
2023-02-04T08:45:30.474Z,4.40
2023-02-04T08:47:56.983Z,4.97
2023-02-04T08:50:23.270Z,4.75
2023-02-04T08:52:49.586Z,4.00
2023-02-04T08:55:15.944Z,4.03
2023-02-04T08:57:42.261Z,5.63
2023-02-04T09:00:10.890Z,4.03
2023-02-04T09:02:37.194Z,3.15
2023-02-04T09:05:04.094Z,5.30
2023-02-04T09:07:30.395Z,4.60
2023-02-04T09:09:56.709Z,5.07
2023-02-04T09:12:23.053Z,4.97
2023-02-04T09:14:49.339Z,4.35
2023-02-04T09:17:15.644Z,4.38
2023-02-04T09:19:41.949Z,4.57
2023-02-04T09:22:08.322Z,4.95
2023-02-04T09:24:34.617Z,5.15
2023-02-04T09:27:00.923Z,4.03
2023-02-04T09:29:27.261Z,4.10
2023-02-04T09:31:53.624Z,3.55
2023-02-04T09:34:19.943Z,4.00
2023-02-04T09:36:46.301Z,3.08
2023-02-04T09:39:12.621Z,4.32
2023-02-04T09:41:40.357Z,4.43
2023-02-04T09:44:14.466Z,4.35
2023-02-04T09:46:44.512Z,3.55
2023-02-04T09:49:11.284Z,4.18
2023-02-04T09:51:37.941Z,3.78
2023-02-04T09:54:13.622Z,3.78
2023-02-04T09:56:40.470Z,3.20
2023-02-04T09:59:23.890Z,3.42
2023-02-04T10:02:24.293Z,3.20
2023-02-04T10:04:57.707Z,3.63
2023-02-04T10:07:26.392Z,3.47
2023-02-04T10:09:54.242Z,3.60
2023-02-04T10:12:21.444Z,4.13
2023-02-04T10:14:47.886Z,3.67
2023-02-04T10:17:20.570Z,3.03
2023-02-04T10:19:46.907Z,3.55
2023-02-04T10:22:18.552Z,3.45
2023-02-04T10:24:44.970Z,2.88
2023-02-04T10:27:13.087Z,4.97
2023-02-04T10:29:42.126Z,3.58
2023-02-04T10:32:29.319Z,4.30
2023-02-04T10:35:00.825Z,3.38
2023-02-04T10:37:27.275Z,4.03
2023-02-04T10:39:53.805Z,3.63
2023-02-04T10:42:25.505Z,3.72
2023-02-04T10:44:52.481Z,3.90
2023-02-04T10:47:24.477Z,3.65
2023-02-04T10:50:18.339Z,4.30
2023-02-04T10:52:55.239Z,4.07
2023-02-04T10:55:23.834Z,4.20
2023-02-04T10:57:52.853Z,4.05
2023-02-04T11:00:22.117Z,4.18
2023-02-04T11:02:51.917Z,3.90
2023-02-04T11:05:21.527Z,3.80
2023-02-04T11:07:49.590Z,3.67
2023-02-04T11:10:24.780Z,2.92
2023-02-04T11:12:53.885Z,2.90
2023-02-04T11:15:40.928Z,4.70
2023-02-04T11:18:11.223Z,4.45
2023-02-04T11:20:40.533Z,3.50
2023-02-04T11:23:25.353Z,3.42
2023-02-04T11:26:22.482Z,3.00
2023-02-04T11:29:01.024Z,3.47
2023-02-04T11:31:29.369Z,3.70
2023-02-04T11:34:10.064Z,3.97
2023-02-04T11:36:54.378Z,3.95
2023-02-04T11:39:20.715Z,3.00
2023-02-04T11:41:47.435Z,2.90
2023-02-04T11:44:16.169Z,3.13
2023-02-04T11:46:42.570Z,2.85
2023-02-04T11:49:20.235Z,3.50
2023-02-04T11:51:47.039Z,2.90
2023-02-04T11:54:17.775Z,3.28
2023-02-04T11:56:44.666Z,3.00
2023-02-04T11:59:12.821Z,4.65
2023-02-04T12:01:39.634Z,3.15
2023-02-04T12:04:08.457Z,3.80
2023-02-04T12:06:36.832Z,5.13
2023-02-04T12:09:15.578Z,3.63
2023-02-04T12:11:58.677Z,3.70
2023-02-04T12:14:36.736Z,3.47
2023-02-04T12:17:16.537Z,3.42
2023-02-04T12:19:42.886Z,3.80
2023-02-04T12:22:09.433Z,4.18
2023-02-04T12:24:35.850Z,2.70
2023-02-04T12:27:02.290Z,3.13
2023-02-04T12:29:28.753Z,3.85
2023-02-04T12:31:55.084Z,3.50
2023-02-04T12:34:21.461Z,3.55
2023-02-04T12:36:47.802Z,3.30
2023-02-04T12:39:14.584Z,4.15
2023-02-04T12:41:40.944Z,3.22
2023-02-04T12:44:07.274Z,2.92
2023-02-04T12:46:33.685Z,3.50
2023-02-04T12:48:59.990Z,2.75
2023-02-04T12:51:26.314Z,2.35
2023-02-04T12:53:52.997Z,3.25
2023-02-04T12:56:20.540Z,2.28
2023-02-04T12:58:46.871Z,3.55
2023-02-04T13:01:13.211Z,2.75
2023-02-04T13:03:39.541Z,2.90
2023-02-04T13:06:06.022Z,2.35
2023-02-04T13:08:32.399Z,1.92
2023-02-04T13:10:58.740Z,3.08
2023-02-04T13:13:25.108Z,2.17
2023-02-04T13:15:51.491Z,4.50
2023-02-04T13:18:18.449Z,2.25
2023-02-04T13:20:45.852Z,2.67
2023-02-04T13:23:12.244Z,2.85
2023-02-04T13:25:38.561Z,3.38
2023-02-04T13:28:05.095Z,2.45
2023-02-04T13:30:31.459Z,2.88
2023-02-04T13:32:57.799Z,2.45
2023-02-04T13:35:25.313Z,3.22
2023-02-04T13:37:51.666Z,2.70
2023-02-04T13:40:18.148Z,2.50
2023-02-04T13:42:44.455Z,3.67
2023-02-04T13:45:12.614Z,2.40
2023-02-04T13:47:39.670Z,2.80
2023-02-04T13:50:06.659Z,2.63
2023-02-04T13:52:34.328Z,2.38
2023-02-04T13:55:01.056Z,2.58
2023-02-04T13:57:27.393Z,2.50
2023-02-04T13:59:54.418Z,2.67
2023-02-04T14:02:21.183Z,2.92
2023-02-04T14:04:47.642Z,3.00
2023-02-04T14:07:14.673Z,3.25
2023-02-04T14:09:41.003Z,2.70
2023-02-04T14:12:07.508Z,3.00
2023-02-04T14:14:33.811Z,3.38
2023-02-04T14:17:00.139Z,2.83
2023-02-04T14:19:27.607Z,2.78
2023-02-04T14:21:54.169Z,2.63
2023-02-04T14:24:20.765Z,2.33
2023-02-04T14:26:48.229Z,2.92
2023-02-04T14:29:14.678Z,2.80
2023-02-04T14:31:41.336Z,2.63
2023-02-04T14:34:07.850Z,3.47
2023-02-04T14:36:34.209Z,2.70
2023-02-04T14:39:00.752Z,3.08
2023-02-04T14:41:29.926Z,3.22
2023-02-04T14:43:56.483Z,2.22
2023-02-04T14:46:22.995Z,2.67
2023-02-04T14:48:51.870Z,2.65
2023-02-04T14:51:19.430Z,2.15
2023-02-04T14:53:48.674Z,2.38
2023-02-04T14:56:16.092Z,2.03
2023-02-04T14:58:42.732Z,2.70
2023-02-04T15:01:09.218Z,2.38
2023-02-04T15:03:35.857Z,2.47
2023-02-04T15:06:02.276Z,2.72
2023-02-04T15:08:28.786Z,2.65
2023-02-04T15:10:55.237Z,2.17
2023-02-04T15:13:21.658Z,2.80
2023-02-04T15:15:47.983Z,3.08
2023-02-04T15:18:14.703Z,2.72
2023-02-04T15:20:41.042Z,2.25
2023-02-04T15:23:07.471Z,2.70
2023-02-04T15:25:33.902Z,2.63
2023-02-04T15:28:00.320Z,2.80
2023-02-04T15:30:26.740Z,2.92
2023-02-04T15:32:53.155Z,2.90
2023-02-04T15:35:20.411Z,4.70
2023-02-04T15:37:46.719Z,3.40
2023-02-04T15:40:13.234Z,2.75
2023-02-04T15:42:39.560Z,2.65
2023-02-04T15:45:06.518Z,2.05
2023-02-04T15:47:32.893Z,2.50
2023-02-04T15:49:59.352Z,2.25
2023-02-04T15:52:26.632Z,3.58
2023-02-04T15:54:54.215Z,2.55
2023-02-04T15:57:20.640Z,2.63
2023-02-04T15:59:46.948Z,2.35
2023-02-04T16:02:13.662Z,2.90
2023-02-04T16:04:41.428Z,2.45
2023-02-04T16:07:08.298Z,2.50
2023-02-04T16:09:35.715Z,2.20
2023-02-04T16:12:02.336Z,2.83
2023-02-04T16:14:28.716Z,3.38
2023-02-04T16:16:55.101Z,2.70
2023-02-04T16:19:21.416Z,3.47
2023-02-04T16:21:47.810Z,3.20
2023-02-04T16:24:15.973Z,3.75
2023-02-04T16:26:42.618Z,3.78
2023-02-04T16:29:08.972Z,3.92
2023-02-04T16:31:35.373Z,4.32
2023-02-04T16:34:01.730Z,3.67
2023-02-04T16:36:28.024Z,3.50
2023-02-04T16:38:54.313Z,3.55
2023-02-04T16:41:20.610Z,4.53
2023-02-04T16:43:46.900Z,5.10
2023-02-04T16:46:15.059Z,6.28
2023-02-04T16:48:41.523Z,5.40
2023-02-04T16:51:08.276Z,4.65
2023-02-04T16:53:35.354Z,3.38
2023-02-04T16:56:02.292Z,3.28
2023-02-04T16:58:28.920Z,2.15
2023-02-04T17:00:56.768Z,2.60
2023-02-04T17:03:23.077Z,3.00
2023-02-04T17:05:49.385Z,2.80
2023-02-04T17:08:17.146Z,2.88
2023-02-04T17:11:02.146Z,2.83
2023-02-04T17:13:28.565Z,3.45
2023-02-04T17:16:00.485Z,2.78
2023-02-04T17:18:28.780Z,2.65
2023-02-04T17:20:55.249Z,3.75
2023-02-04T17:23:22.119Z,3.75
2023-02-04T17:25:48.683Z,2.58
2023-02-04T17:28:15.021Z,2.80
2023-02-04T17:30:41.440Z,3.00
2023-02-04T17:33:07.800Z,3.08
2023-02-04T17:35:34.386Z,2.75
2023-02-04T17:38:01.128Z,2.90
2023-02-04T17:40:28.203Z,2.40
2023-02-04T17:42:56.146Z,3.00
2023-02-04T17:45:22.512Z,3.53
2023-02-04T17:47:48.878Z,3.72
2023-02-04T17:50:15.721Z,5.00
2023-02-04T17:52:42.065Z,3.45
2023-02-04T17:55:25.271Z,3.50
2023-02-04T17:57:51.617Z,4.72
2023-02-04T18:00:21.039Z,2.95
2023-02-04T18:02:49.758Z,3.53
2023-02-04T18:05:20.016Z,2.63
2023-02-04T18:07:52.497Z,3.30
2023-02-04T18:10:31.678Z,4.00
2023-02-04T18:13:09.880Z,2.85
2023-02-04T18:15:37.016Z,3.28
2023-02-04T18:18:18.615Z,3.42
2023-02-04T18:20:45.206Z,2.90
2023-02-04T18:23:18.333Z,3.63
2023-02-04T18:25:48.317Z,3.55
2023-02-04T18:28:18.091Z,3.67
2023-02-04T18:30:45.697Z,3.75
2023-02-04T18:33:17.051Z,3.47
2023-02-04T18:35:50.296Z,4.07
2023-02-04T18:38:25.750Z,2.80
2023-02-04T18:41:02.320Z,4.00
2023-02-04T18:43:35.505Z,3.47
2023-02-04T18:46:16.309Z,4.15
2023-02-04T18:48:53.229Z,5.40
2023-02-04T18:51:26.001Z,4.50
2023-02-04T18:53:57.204Z,4.00
2023-02-04T18:56:23.493Z,4.22
2023-02-04T18:58:50.992Z,4.57
2023-02-04T19:01:27.386Z,3.97
2023-02-04T19:03:57.311Z,3.72
2023-02-04T19:06:26.372Z,4.53
2023-02-04T19:08:54.216Z,4.60
2023-02-04T19:11:37.524Z,4.60
2023-02-04T19:14:23.979Z,3.90
2023-02-04T19:16:52.560Z,4.07
2023-02-04T19:19:42.902Z,4.20
2023-02-04T19:22:17.535Z,4.00
2023-02-04T19:24:44.376Z,4.70
2023-02-04T19:27:27.935Z,4.90
2023-02-04T19:29:55.625Z,4.30
2023-02-04T19:32:32.209Z,4.65
2023-02-04T19:35:02.637Z,4.00
2023-02-04T19:37:39.811Z,4.90
2023-02-04T19:40:42.735Z,4.53
2023-02-04T19:43:22.955Z,4.63
2023-02-04T19:45:51.104Z,3.72
2023-02-04T19:48:35.048Z,4.13
2023-02-04T19:51:26.839Z,4.35
2023-02-04T19:54:18.000Z,3.90
2023-02-04T19:56:44.353Z,4.78
2023-02-04T19:59:35.724Z,4.53
2023-02-04T20:02:07.955Z,4.25
2023-02-04T20:04:43.268Z,5.15
2023-02-04T20:07:23.343Z,4.10
2023-02-04T20:09:56.394Z,4.72
2023-02-04T20:12:22.773Z,5.07
2023-02-04T20:14:55.862Z,6.43
2023-02-04T20:17:37.537Z,6.00
2023-02-04T20:20:16.962Z,5.13
2023-02-04T20:22:49.069Z,4.93
2023-02-04T20:25:47.416Z,10.38
2023-02-04T20:28:36.773Z,6.78
2023-02-04T20:31:16.572Z,6.72
2023-02-04T20:33:52.562Z,5.05
2023-02-04T20:36:26.757Z,6.75
2023-02-04T20:38:58.890Z,4.80
2023-02-04T20:41:25.395Z,6.03
2023-02-04T20:43:51.867Z,5.45
2023-02-04T20:46:24.807Z,4.18
2023-02-04T20:48:51.532Z,6.43
2023-02-04T20:51:23.647Z,4.28
2023-02-04T20:53:55.228Z,4.30
2023-02-04T20:56:31.546Z,5.72
2023-02-04T20:59:23.623Z,7.93
2023-02-04T21:01:50.523Z,6.88
2023-02-04T21:04:34.240Z,8.27
2023-02-04T21:07:03.718Z,7.78
2023-02-04T21:09:32.644Z,7.88
2023-02-04T21:12:00.665Z,7.40
2023-02-04T21:14:28.676Z,8.13
2023-02-04T21:16:55.987Z,10.00
2023-02-04T21:19:24.667Z,9.32
2023-02-04T21:21:51.434Z,8.80
2023-02-04T21:24:18.136Z,8.70
2023-02-04T21:26:44.486Z,9.40
2023-02-04T21:29:11.333Z,8.38
2023-02-04T21:31:37.888Z,6.40
2023-02-04T21:34:04.584Z,8.02
2023-02-04T21:36:31.903Z,7.97
2023-02-04T21:38:58.266Z,7.57
2023-02-04T21:41:25.151Z,8.52
2023-02-04T21:43:51.973Z,7.95
2023-02-04T21:46:19.042Z,7.10
2023-02-04T21:48:45.895Z,6.60
2023-02-04T21:51:13.680Z,7.18
2023-02-04T21:53:40.094Z,6.57
2023-02-04T21:56:08.092Z,8.65
2023-02-04T21:58:34.795Z,7.97
2023-02-04T22:01:01.136Z,7.13
2023-02-04T22:03:27.851Z,6.63
2023-02-04T22:05:54.212Z,6.38
2023-02-04T22:08:21.287Z,5.35
2023-02-04T22:10:47.687Z,4.95
2023-02-04T22:13:14.049Z,6.20
2023-02-04T22:15:40.359Z,7.38
2023-02-04T22:18:06.789Z,4.90
2023-02-04T22:20:33.113Z,5.40
2023-02-04T22:22:59.439Z,5.20
2023-02-04T22:25:25.756Z,4.93
2023-02-04T22:27:52.077Z,4.45
2023-02-04T22:30:18.816Z,4.60
2023-02-04T22:32:45.273Z,4.72
2023-02-04T22:35:12.612Z,5.20
2023-02-04T22:37:40.187Z,5.30
2023-02-04T22:40:07.897Z,4.80
2023-02-04T22:42:34.402Z,4.97
2023-02-04T22:45:02.430Z,4.93
2023-02-04T22:47:28.862Z,4.05
2023-02-04T22:49:55.254Z,4.50
2023-02-04T22:52:21.589Z,5.38
2023-02-04T22:54:47.902Z,5.07
2023-02-04T22:57:14.276Z,4.90
2023-02-04T22:59:40.597Z,4.85
2023-02-04T23:02:07.081Z,4.97
2023-02-04T23:04:33.782Z,5.90
2023-02-04T23:07:04.402Z,5.20
2023-02-04T23:09:32.454Z,5.22
2023-02-04T23:12:12.380Z,5.43
2023-02-04T23:14:43.392Z,5.60
2023-02-04T23:19:36.970Z,5.22
2023-02-04T23:22:03.632Z,5.13
2023-02-04T23:24:30.547Z,5.13
2023-02-04T23:26:59.851Z,6.82
2023-02-04T23:29:28.245Z,5.65
2023-02-04T23:31:55.351Z,5.00
2023-02-04T23:34:21.730Z,4.97
2023-02-04T23:36:50.864Z,4.68
2023-02-04T23:39:20.709Z,4.50
2023-02-04T23:41:50.516Z,6.03
2023-02-04T23:44:16.953Z,5.10
2023-02-04T23:46:43.333Z,5.32
2023-02-04T23:49:09.948Z,5.40
2023-02-04T23:51:36.355Z,5.28
2023-02-04T23:54:02.703Z,5.55
2023-02-04T23:56:29.289Z,4.53
2023-02-04T23:58:55.854Z,5.18
